Time;durP1;ratioP1;P1;durP2;ratioP2;P2;SDS_P1;SDS_P2;PMS_P1;PMS_P2;Temp;Humidity;BMP_temperature;BMP_pressure;BME280_temperature;BME280_humidity;BME280_pressure;Samples;Min_cycle;Max_cycle;Signal;HPM_P1;HPM_P2
2023/02/08 00:02:15;;;;;;;3.05;1.50;;;26.90;60.10;;;;;;4156281;28;20041;-44
2023/02/08 00:04:37;;;;;;;3.10;1.45;;;26.90;60.20;;;;;;4157310;28;20069;-46
2023/02/08 00:07:00;;;;;;;3.67;1.58;;;27.00;60.30;;;;;;4156647;28;21373;-44
2023/02/08 00:09:22;;;;;;;3.60;2.13;;;27.00;60.40;;;;;;4149985;28;20549;-45
2023/02/08 00:11:44;;;;;;;3.78;1.63;;;27.00;60.60;;;;;;4156843;28;20773;-50
2023/02/08 00:14:07;;;;;;;3.90;2.03;;;27.00;60.90;;;;;;4148524;28;20120;-46
2023/02/08 00:16:30;;;;;;;4.95;2.10;;;27.00;61.10;;;;;;4156610;28;20111;-45
2023/02/08 00:18:52;;;;;;;4.93;2.15;;;27.00;61.60;;;;;;4155330;28;20486;-46
2023/02/08 00:21:17;;;;;;;3.95;1.80;;;27.00;61.20;;;;;;4153918;28;20049;-44
2023/02/08 00:23:39;;;;;;;4.47;2.03;;;27.00;61.30;;;;;;4157768;28;20044;-43
2023/02/08 00:26:02;;;;;;;3.60;1.98;;;27.00;61.50;;;;;;4156659;28;20437;-44
2023/02/08 00:28:24;;;;;;;5.20;1.92;;;27.00;61.50;;;;;;4157545;28;20120;-46
2023/02/08 00:30:47;;;;;;;6.15;1.85;;;27.00;61.50;;;;;;4155026;28;20045;-46
2023/02/08 00:33:10;;;;;;;3.67;1.65;;;27.00;61.60;;;;;;4155690;28;20124;-44
2023/02/08 00:35:32;;;;;;;4.97;2.00;;;27.10;61.70;;;;;;4156428;28;20037;-46
2023/02/08 00:37:55;;;;;;;2.88;1.50;;;27.10;61.80;;;;;;4154869;28;20059;-44
2023/02/08 00:40:18;;;;;;;3.90;1.63;;;27.10;61.80;;;;;;4150059;28;20038;-47
2023/02/08 00:42:40;;;;;;;4.03;1.80;;;27.10;61.90;;;;;;4154553;28;20049;-44
2023/02/08 00:45:03;;;;;;;3.83;1.70;;;27.10;62.00;;;;;;4149413;28;20033;-44
2023/02/08 00:47:25;;;;;;;4.53;1.80;;;27.10;62.10;;;;;;4154678;28;20072;-47
2023/02/08 00:49:47;;;;;;;3.03;1.40;;;27.10;62.00;;;;;;4150155;28;20041;-45
2023/02/08 00:52:10;;;;;;;3.85;1.70;;;27.10;62.20;;;;;;4153869;28;20424;-44
2023/02/08 00:54:32;;;;;;;3.35;1.83;;;27.10;62.40;;;;;;4155999;28;20598;-46
2023/02/08 00:56:55;;;;;;;2.42;1.15;;;27.10;62.30;;;;;;4155281;28;20049;-44
2023/02/08 00:59:17;;;;;;;3.17;1.42;;;27.10;62.40;;;;;;4153598;28;20056;-45
2023/02/08 01:01:40;;;;;;;3.85;1.50;;;27.10;62.40;;;;;;4150561;28;20063;-44
2023/02/08 01:04:03;;;;;;;2.85;1.25;;;27.10;62.40;;;;;;4152485;28;20311;-48
2023/02/08 01:06:25;;;;;;;2.60;1.40;;;27.10;62.40;;;;;;4154135;28;20406;-46
2023/02/08 01:08:48;;;;;;;2.35;1.30;;;27.10;62.40;;;;;;4156901;28;20253;-45
2023/02/08 01:11:21;;;;;;;2.63;1.13;;;27.10;62.40;;;;;;4156349;28;20571;-45
2023/02/08 01:13:43;;;;;;;2.35;1.10;;;27.10;62.50;;;;;;4149827;28;20033;-44
2023/02/08 01:16:09;;;;;;;2.37;1.23;;;27.10;62.50;;;;;;4153513;28;20039;-48
2023/02/08 01:18:31;;;;;;;3.85;1.42;;;27.10;62.50;;;;;;4155886;28;20421;-46
2023/02/08 01:20:54;;;;;;;4.35;1.40;;;27.20;62.60;;;;;;4150314;28;20041;-48
2023/02/08 01:23:16;;;;;;;2.80;1.17;;;27.20;62.50;;;;;;4154866;28;20486;-43
2023/02/08 01:25:38;;;;;;;2.75;1.20;;;27.20;62.50;;;;;;4153421;28;20045;-44
2023/02/08 01:28:01;;;;;;;2.42;1.30;;;27.20;62.60;;;;;;4152428;28;20038;-45
2023/02/08 01:30:23;;;;;;;2.92;1.30;;;27.20;62.60;;;;;;4156096;28;20037;-44
2023/02/08 01:32:46;;;;;;;3.67;1.25;;;27.20;62.60;;;;;;4150873;28;20050;-49
2023/02/08 01:35:08;;;;;;;3.42;1.42;;;27.20;62.60;;;;;;4150878;28;20095;-48
2023/02/08 01:37:31;;;;;;;3.05;1.27;;;27.20;62.60;;;;;;4151768;28;20539;-48
2023/02/08 01:39:53;;;;;;;2.65;1.45;;;27.20;62.60;;;;;;4149920;28;20037;-46
2023/02/08 01:42:18;;;;;;;1.67;1.27;;;27.30;62.60;;;;;;4152173;28;20472;-46
2023/02/08 01:45:04;;;;;;;2.22;1.08;;;27.30;62.60;;;;;;4153419;28;20635;-45
2023/02/08 01:47:27;;;;;;;5.10;1.45;;;27.30;62.40;;;;;;4145574;28;20037;-49
2023/02/08 01:49:49;;;;;;;3.92;1.70;;;27.30;62.50;;;;;;4157270;28;20424;-44
2023/02/08 01:52:21;;;;;;;3.40;1.73;;;27.40;62.50;;;;;;4154714;28;20057;-44
2023/02/08 01:54:55;;;;;;;3.45;1.30;;;27.30;62.50;;;;;;4152960;28;20037;-48
2023/02/08 01:57:20;;;;;;;3.10;1.30;;;27.40;62.50;;;;;;4152523;28;20033;-44
2023/02/08 02:00:01;;;;;;;2.92;1.35;;;27.40;62.40;;;;;;4150161;28;20323;-45
2023/02/08 02:02:24;;;;;;;3.58;1.35;;;27.40;62.50;;;;;;4151952;28;20048;-46
2023/02/08 02:04:48;;;;;;;2.58;1.30;;;27.50;62.60;;;;;;4156960;28;20119;-45
2023/02/08 02:07:12;;;;;;;3.60;1.30;;;27.50;62.50;;;;;;4154264;28;20045;-44
2023/02/08 02:09:57;;;;;;;2.97;1.02;;;27.50;62.50;;;;;;4155513;28;20051;-47
2023/02/08 02:12:20;;;;;;;3.20;1.20;;;27.50;62.40;;;;;;4148556;28;20049;-46
2023/02/08 02:14:43;;;;;;;2.63;1.35;;;27.50;62.40;;;;;;4155131;28;20466;-49
2023/02/08 02:17:06;;;;;;;2.95;1.13;;;27.50;62.30;;;;;;4155033;28;20083;-44
2023/02/08 02:19:52;;;;;;;1.85;0.98;;;27.60;62.40;;;;;;4154986;28;20473;-49
2023/02/08 02:22:32;;;;;;;3.17;1.13;;;27.60;62.40;;;;;;4149139;28;20044;-46
2023/02/08 02:25:13;;;;;;;1.38;1.00;;;27.60;62.40;;;;;;4154219;28;20485;-43
2023/02/08 02:27:41;;;;;;;1.88;1.27;;;27.60;62.40;;;;;;4145671;28;20048;-46
2023/02/08 02:30:24;;;;;;;2.17;1.15;;;27.60;62.40;;;;;;4153823;28;20053;-44
2023/02/08 02:33:07;;;;;;;1.77;1.00;;;27.60;62.40;;;;;;4152790;28;20049;-49
2023/02/08 02:35:45;;;;;;;3.25;1.30;;;27.60;62.30;;;;;;4147206;28;20508;-49
2023/02/08 02:38:32;;;;;;;4.15;1.20;;;27.60;62.40;;;;;;4151712;28;20164;-49
2023/02/08 02:41:13;;;;;;;3.00;1.27;;;27.70;62.30;;;;;;4153046;28;20531;-47
2023/02/08 02:43:50;;;;;;;2.80;1.17;;;27.70;62.30;;;;;;4145941;28;20045;-48
2023/02/08 02:46:27;;;;;;;4.68;1.70;;;27.70;62.20;;;;;;4153146;28;20271;-46
2023/02/08 02:49:40;;;;;;;1.80;0.82;;;27.70;62.30;;;;;;4156034;28;20837;-48
2023/02/08 02:52:06;;;;;;;2.42;1.05;;;27.70;62.20;;;;;;4119469;28;20049;-46
2023/02/08 02:54:50;;;;;;;1.42;1.00;;;27.70;62.30;;;;;;4151327;28;20041;-51
2023/02/08 02:57:18;;;;;;;3.28;1.27;;;27.80;62.40;;;;;;4153628;28;20045;-47
2023/02/08 02:59:41;;;;;;;2.08;0.98;;;27.70;62.60;;;;;;4152401;28;20041;-47
2023/02/08 03:02:05;;;;;;;2.22;0.88;;;27.80;62.30;;;;;;4154154;28;20053;-46
2023/02/08 03:04:33;;;;;;;3.03;0.95;;;27.80;62.30;;;;;;4154957;28;20037;-48
2023/02/08 03:07:01;;;;;;;1.88;1.17;;;27.80;62.30;;;;;;4153440;28;20041;-49
2023/02/08 03:09:47;;;;;;;2.90;1.05;;;27.80;62.30;;;;;;4154204;28;20124;-46
2023/02/08 03:12:36;;;;;;;1.98;0.95;;;27.80;62.30;;;;;;4147967;28;20156;-44
2023/02/08 03:15:16;;;;;;;2.80;1.10;;;27.90;62.40;;;;;;4122727;28;20271;-43
2023/02/08 03:17:49;;;;;;;2.88;1.17;;;27.80;62.40;;;;;;4146123;28;20132;-51
2023/02/08 03:20:21;;;;;;;3.23;1.20;;;27.80;62.40;;;;;;4154671;28;20037;-45
2023/02/08 03:23:03;;;;;;;2.63;0.93;;;27.90;62.40;;;;;;4153952;28;20297;-46
2023/02/08 03:26:01;;;;;;;3.20;1.10;;;27.90;62.30;;;;;;4156314;28;20072;-45
2023/02/08 03:28:31;;;;;;;3.80;1.10;;;27.90;63.00;;;;;;4147305;28;20493;-45
2023/02/08 03:31:09;;;;;;;2.42;1.08;;;27.90;62.30;;;;;;4153513;28;20095;-43
2023/02/08 03:33:32;;;;;;;1.30;0.82;;;27.90;62.30;;;;;;4150519;28;20042;-44
2023/02/08 03:36:05;;;;;;;2.70;1.30;;;27.90;63.00;;;;;;4152846;28;20033;-44
2023/02/08 03:38:32;;;;;;;2.58;1.02;;;27.90;61.10;;;;;;4151033;28;20128;-43
2023/02/08 03:40:57;;;;;;;1.45;0.88;;;27.70;58.90;;;;;;4145992;28;20160;-43
2023/02/08 03:43:34;;;;;;;1.45;0.70;;;27.40;57.80;;;;;;4148535;28;20269;-43
2023/02/08 03:46:09;;;;;;;1.95;0.75;;;27.20;57.50;;;;;;4150385;28;20041;-42
2023/02/08 03:48:35;;;;;;;1.65;0.82;;;27.00;58.50;;;;;;4148354;28;20041;-44
2023/02/08 03:51:00;;;;;;;1.58;0.73;;;27.10;58.70;;;;;;4148917;28;20122;-45
2023/02/08 03:53:24;;;;;;;1.50;0.60;;;27.10;58.90;;;;;;4149156;28;20131;-47
2023/02/08 03:55:51;;;;;;;2.05;1.10;;;27.20;59.20;;;;;;4146130;28;20120;-47
2023/02/08 03:58:22;;;;;;;4.95;4.05;;;27.20;59.20;;;;;;4150904;28;20103;-46
2023/02/08 04:00:54;;;;;;;5.68;5.18;;;27.20;58.50;;;;;;4152299;28;20774;-43
2023/02/08 04:03:24;;;;;;;7.63;7.03;;;27.00;57.30;;;;;;4146404;28;20468;-43
2023/02/08 04:05:46;;;;;;;7.05;6.50;;;26.80;56.50;;;;;;4149286;28;20037;-43
2023/02/08 04:08:09;;;;;;;6.65;6.10;;;26.60;56.90;;;;;;4150286;28;20369;-43
2023/02/08 04:10:31;;;;;;;6.07;5.57;;;26.60;57.80;;;;;;4147726;28;20528;-46
2023/02/08 04:12:54;;;;;;;6.38;5.88;;;26.70;58.10;;;;;;4150851;28;20053;-46
2023/02/08 04:15:17;;;;;;;5.85;5.35;;;26.70;58.20;;;;;;4151534;28;20049;-44
2023/02/08 04:17:39;;;;;;;5.70;5.20;;;26.80;58.40;;;;;;4144735;28;20041;-45
2023/02/08 04:20:01;;;;;;;8.20;7.50;;;26.80;58.90;;;;;;4151200;28;20940;-44
2023/02/08 04:22:24;;;;;;;8.52;7.82;;;26.80;58.00;;;;;;4142799;28;20049;-48
2023/02/08 04:24:46;;;;;;;7.97;7.38;;;26.70;57.10;;;;;;4147835;28;20143;-45
2023/02/08 04:27:08;;;;;;;6.50;5.90;;;26.50;56.50;;;;;;4145960;28;20045;-46
2023/02/08 04:29:31;;;;;;;6.80;6.20;;;26.30;57.20;;;;;;4153494;28;20405;-45
2023/02/08 04:31:53;;;;;;;5.80;5.30;;;26.40;57.40;;;;;;4150472;28;20049;-42
2023/02/08 04:34:16;;;;;;;5.15;4.75;;;26.40;57.60;;;;;;4152888;28;20130;-43
2023/02/08 04:36:38;;;;;;;4.30;3.88;;;26.50;57.90;;;;;;4151095;28;20385;-46
2023/02/08 04:39:01;;;;;;;4.18;3.78;;;26.60;58.10;;;;;;4154935;28;20069;-45
2023/02/08 04:41:23;;;;;;;4.00;3.60;;;26.60;58.30;;;;;;4149259;28;20045;-45
2023/02/08 04:43:46;;;;;;;3.78;3.40;;;26.70;58.50;;;;;;4144828;28;20121;-45
2023/02/08 04:46:08;;;;;;;3.40;2.95;;;26.60;57.20;;;;;;4151568;28;20449;-50
2023/02/08 04:48:31;;;;;;;3.08;2.70;;;26.30;56.20;;;;;;4152591;28;20049;-47
2023/02/08 04:50:56;;;;;;;3.15;2.65;;;26.20;57.00;;;;;;4151574;28;20045;-44
2023/02/08 04:53:20;;;;;;;3.05;2.15;;;26.20;57.90;;;;;;4150774;28;20063;-49
2023/02/08 04:55:42;;;;;;;2.17;1.95;;;26.20;57.40;;;;;;4145646;28;20036;-48
2023/02/08 04:58:04;;;;;;;2.00;1.63;;;26.30;57.60;;;;;;4151911;28;20442;-48
2023/02/08 05:00:27;;;;;;;2.47;1.98;;;26.40;57.80;;;;;;4147818;28;20040;-46
2023/02/08 05:03:00;;;;;;;2.43;1.90;;;26.50;58.00;;;;;;4151282;28;20118;-44
2023/02/08 05:05:23;;;;;;;3.53;2.00;;;26.50;58.00;;;;;;4149596;28;20274;-47
2023/02/08 05:07:45;;;;;;;2.83;2.17;;;26.40;57.00;;;;;;4141623;28;20040;-46
2023/02/08 05:10:08;;;;;;;3.08;1.88;;;26.20;56.40;;;;;;4142963;28;20500;-45
2023/02/08 05:12:31;;;;;;;2.00;1.70;;;26.10;56.90;;;;;;4143864;28;20055;-44
2023/02/08 05:14:53;;;;;;;1.88;1.40;;;26.20;57.00;;;;;;4144089;28;20274;-45
2023/02/08 05:17:15;;;;;;;1.90;1.30;;;26.30;57.20;;;;;;4141365;28;20488;-45
2023/02/08 05:19:38;;;;;;;3.85;1.55;;;26.40;57.20;;;;;;4140848;28;20073;-49
2023/02/08 05:22:01;;;;;;;2.08;1.20;;;26.50;57.50;;;;;;4148189;28;20306;-46
2023/02/08 05:24:24;;;;;;;2.22;1.35;;;26.60;57.60;;;;;;4148018;28;20045;-47
2023/02/08 05:26:47;;;;;;;2.67;1.40;;;26.60;58.00;;;;;;4147261;28;20041;-46
2023/02/08 05:29:09;;;;;;;2.15;1.67;;;26.50;56.80;;;;;;4148978;28;20500;-45
2023/02/08 05:31:32;;;;;;;2.67;1.50;;;26.40;56.30;;;;;;4149167;28;20077;-43
2023/02/08 05:33:54;;;;;;;2.75;1.38;;;26.20;56.50;;;;;;4139766;28;20038;-47
2023/02/08 05:36:17;;;;;;;2.85;1.52;;;26.20;56.70;;;;;;4143931;28;20064;-45
2023/02/08 05:38:40;;;;;;;1.77;1.15;;;26.30;56.80;;;;;;4148522;28;20037;-43
2023/02/08 05:41:03;;;;;;;1.90;1.10;;;26.30;57.00;;;;;;4147578;28;20495;-48
2023/02/08 05:43:26;;;;;;;2.58;1.02;;;26.40;57.30;;;;;;4146075;28;20045;-43
2023/02/08 05:45:50;;;;;;;1.77;1.05;;;26.50;57.40;;;;;;4145907;28;20310;-48
2023/02/08 05:48:13;;;;;;;1.73;1.30;;;26.70;57.60;;;;;;4145773;28;20436;-48
2023/02/08 05:50:35;;;;;;;2.13;1.30;;;26.70;57.80;;;;;;4146701;28;20041;-51
2023/02/08 05:52:58;;;;;;;1.02;0.88;;;26.60;56.50;;;;;;4149309;28;20049;-49
2023/02/08 05:55:20;;;;;;;2.67;1.13;;;26.40;55.80;;;;;;4144010;28;20537;-48
2023/02/08 05:57:43;;;;;;;2.23;1.00;;;26.20;56.00;;;;;;4147710;28;20122;-45
2023/02/08 06:00:06;;;;;;;1.60;1.13;;;26.20;56.40;;;;;;4140188;28;20547;-46
2023/02/08 06:02:29;;;;;;;1.40;0.88;;;26.20;56.50;;;;;;4147139;28;20088;-47
2023/02/08 06:04:51;;;;;;;1.63;0.93;;;26.30;56.80;;;;;;4149445;28;20775;-44
2023/02/08 06:07:14;;;;;;;1.10;0.77;;;26.40;57.10;;;;;;4146987;28;20520;-49
2023/02/08 06:09:36;;;;;;;1.58;0.88;;;26.50;57.20;;;;;;4143205;28;20037;-47
2023/02/08 06:11:58;;;;;;;1.05;0.95;;;26.60;57.40;;;;;;4147619;28;20131;-48
2023/02/08 06:14:21;;;;;;;1.00;0.75;;;26.70;57.80;;;;;;4144397;28;20072;-43
2023/02/08 06:16:44;;;;;;;1.25;0.82;;;26.60;56.40;;;;;;4146071;28;20049;-49
2023/02/08 06:19:06;;;;;;;1.65;1.02;;;26.40;55.70;;;;;;4148271;28;20069;-49
2023/02/08 06:21:29;;;;;;;1.23;0.70;;;26.30;55.80;;;;;;4150039;28;20048;-46
2023/02/08 06:23:51;;;;;;;1.13;0.88;;;26.30;55.70;;;;;;4153202;28;20056;-48
2023/02/08 06:26:14;;;;;;;0.90;0.70;;;26.40;56.10;;;;;;4154140;28;20524;-45
2023/02/08 06:28:36;;;;;;;0.98;0.82;;;26.50;56.20;;;;;;4150808;28;20037;-44
2023/02/08 06:30:59;;;;;;;1.10;0.65;;;26.60;56.40;;;;;;4145027;28;20091;-43
2023/02/08 06:33:21;;;;;;;4.40;0.90;;;26.70;57.20;;;;;;4150519;28;20049;-45
2023/02/08 06:35:52;;;;;;;0.98;0.73;;;26.80;57.30;;;;;;4145528;28;20037;-46
2023/02/08 06:38:14;;;;;;;1.13;0.70;;;26.70;55.70;;;;;;4151692;28;20076;-46
2023/02/08 06:40:37;;;;;;;1.65;0.70;;;26.50;55.10;;;;;;4152385;28;20165;-44
2023/02/08 06:42:59;;;;;;;1.15;0.68;;;26.30;55.90;;;;;;4152607;28;20033;-43
2023/02/08 06:45:22;;;;;;;1.08;0.63;;;26.20;55.40;;;;;;4148861;28;20052;-43
2023/02/08 06:47:44;;;;;;;1.73;0.80;;;26.30;55.70;;;;;;4152898;28;20409;-44
2023/02/08 06:50:07;;;;;;;0.90;0.70;;;26.40;56.00;;;;;;4146995;28;20540;-42
2023/02/08 06:52:30;;;;;;;1.08;0.80;;;26.50;56.30;;;;;;4152776;28;20044;-45
2023/02/08 06:54:52;;;;;;;0.68;0.50;;;26.50;56.40;;;;;;4154007;28;20052;-46
2023/02/08 06:57:15;;;;;;;1.15;0.75;;;26.70;56.60;;;;;;4153444;28;20045;-45
2023/02/08 06:59:38;;;;;;;0.73;0.55;;;26.80;57.10;;;;;;4153820;28;20037;-43
2023/02/08 07:02:00;;;;;;;1.33;0.67;;;26.70;55.70;;;;;;4152773;28;20037;-43
2023/02/08 07:04:23;;;;;;;0.70;0.50;;;26.50;55.10;;;;;;4148410;28;20860;-44
2023/02/08 07:06:48;;;;;;;2.10;1.10;;;26.20;55.00;;;;;;4152961;28;20158;-47
2023/02/08 07:09:11;;;;;;;1.50;0.80;;;26.10;55.30;;;;;;4145193;28;20037;-43
2023/02/08 07:11:33;;;;;;;1.17;0.70;;;26.10;55.40;;;;;;4152601;28;20045;-42
2023/02/08 07:13:55;;;;;;;1.60;0.82;;;26.20;56.40;;;;;;4145955;28;20438;-48
2023/02/08 07:16:19;;;;;;;1.25;0.80;;;26.30;56.00;;;;;;4154428;28;20037;-43
2023/02/08 07:18:41;;;;;;;1.85;0.85;;;26.40;56.30;;;;;;4153102;28;20041;-50
2023/02/08 07:21:04;;;;;;;1.33;0.65;;;26.50;56.60;;;;;;4154686;28;20045;-45
2023/02/08 07:23:27;;;;;;;1.30;0.70;;;26.60;56.60;;;;;;4154446;28;20471;-48
2023/02/08 07:26:07;;;;;;;1.00;0.60;;;26.60;57.10;;;;;;4154230;28;20488;-45
2023/02/08 07:28:30;;;;;;;1.15;0.60;;;26.50;55.90;;;;;;4151856;28;20056;-45
2023/02/08 07:30:53;;;;;;;1.58;0.80;;;26.30;55.10;;;;;;4157670;28;20041;-43
2023/02/08 07:33:15;;;;;;;1.73;0.80;;;26.10;54.80;;;;;;4156692;28;20115;-43
2023/02/08 07:35:38;;;;;;;2.15;1.05;;;26.00;55.50;;;;;;4155550;28;20111;-42
2023/02/08 07:38:01;;;;;;;4.97;1.23;;;26.00;55.60;;;;;;4154516;28;20056;-41
2023/02/08 07:40:23;;;;;;;1.33;0.75;;;26.10;56.90;;;;;;4156334;28;20560;-41
2023/02/08 07:42:45;;;;;;;2.53;1.10;;;26.00;56.20;;;;;;4153849;28;20080;-44
2023/02/08 07:45:08;;;;;;;3.25;1.30;;;25.80;55.40;;;;;;4151579;28;20045;-47
2023/02/08 07:47:31;;;;;;;3.63;2.78;;;25.70;55.40;;;;;;4153728;28;20425;-44
2023/02/08 07:49:53;;;;;;;6.93;6.25;;;25.60;55.40;;;;;;4152028;28;20842;-48
2023/02/08 07:52:15;;;;;;;19.08;17.50;;;25.40;55.10;;;;;;4152439;28;20194;-47
2023/02/08 07:54:38;;;;;;;38.75;35.70;;;25.30;55.20;;;;;;4155007;28;20045;-43
2023/02/08 07:57:00;;;;;;;47.20;43.60;;;25.10;54.90;;;;;;4153258;28;20533;-43
2023/02/08 07:59:23;;;;;;;47.08;43.33;;;25.10;55.00;;;;;;4155061;28;20129;-42
2023/02/08 08:01:45;;;;;;;44.83;41.33;;;24.90;55.00;;;;;;4152986;28;20045;-49
2023/02/08 08:04:08;;;;;;;40.78;37.67;;;24.80;55.20;;;;;;4153880;28;20419;-45
2023/02/08 08:06:30;;;;;;;35.83;32.92;;;24.70;54.90;;;;;;4155076;28;20816;-45
2023/02/08 08:08:52;;;;;;;30.88;28.48;;;24.60;55.20;;;;;;4154249;28;20042;-43
2023/02/08 08:11:16;;;;;;;28.25;26.05;;;24.50;55.50;;;;;;4150267;28;20783;-42
2023/02/08 08:13:38;;;;;;;25.05;23.05;;;24.60;56.10;;;;;;4155766;28;20118;-44
2023/02/08 08:16:01;;;;;;;23.45;21.33;;;24.60;56.20;;;;;;4155016;28;20048;-47
2023/02/08 08:18:23;;;;;;;25.23;23.10;;;24.70;57.10;;;;;;4151757;28;20129;-43
2023/02/08 08:20:45;;;;;;;26.17;23.88;;;24.70;56.30;;;;;;4151289;28;20131;-41
2023/02/08 08:23:08;;;;;;;25.98;23.60;;;24.60;55.50;;;;;;4152078;28;20702;-42
2023/02/08 08:25:31;;;;;;;23.63;21.58;;;24.50;55.10;;;;;;4153722;28;20092;-44
2023/02/08 08:27:54;;;;;;;20.70;18.90;;;24.30;54.70;;;;;;4153358;28;20048;-42
2023/02/08 08:30:17;;;;;;;19.15;17.42;;;24.20;56.30;;;;;;4156704;28;20037;-42
2023/02/08 08:32:40;;;;;;;17.55;15.98;;;24.30;56.20;;;;;;4151987;28;20053;-42
2023/02/08 08:35:02;;;;;;;16.10;14.70;;;24.40;56.30;;;;;;4153534;28;20098;-42
2023/02/08 08:37:25;;;;;;;14.65;13.32;;;24.50;57.40;;;;;;4151752;28;20088;-43
2023/02/08 08:39:47;;;;;;;12.70;11.50;;;24.40;56.00;;;;;;4150944;28;20779;-42
2023/02/08 08:42:10;;;;;;;11.30;10.20;;;24.30;55.50;;;;;;4149753;28;20123;-42
2023/02/08 08:44:32;;;;;;;11.10;9.90;;;24.20;55.50;;;;;;4147919;28;20114;-44
2023/02/08 08:46:59;;;;;;;13.85;9.27;;;24.00;56.90;;;;;;4150961;28;20060;-42
2023/02/08 08:49:25;;;;;;;8.32;7.53;;;24.10;57.00;;;;;;4150969;28;20140;-49
2023/02/08 08:51:48;;;;;;;9.48;7.00;;;24.20;57.20;;;;;;4149459;28;20136;-46
2023/02/08 08:54:10;;;;;;;8.82;6.65;;;24.30;57.80;;;;;;4145000;28;20040;-54
2023/02/08 08:56:33;;;;;;;7.18;5.63;;;24.40;58.40;;;;;;4143015;28;20487;-45
2023/02/08 08:58:55;;;;;;;6.67;5.00;;;24.40;57.00;;;;;;4146307;28;20053;-46
2023/02/08 09:01:18;;;;;;;5.22;4.70;;;24.30;56.30;;;;;;4147951;28;20040;-43
2023/02/08 09:03:40;;;;;;;5.20;4.55;;;24.10;55.90;;;;;;4145159;28;20370;-43
2023/02/08 09:06:03;;;;;;;5.50;4.60;;;24.10;56.80;;;;;;4144121;28;20050;-51
2023/02/08 09:08:25;;;;;;;4.72;4.00;;;24.10;57.20;;;;;;4145003;28;20231;-50
2023/02/08 09:10:48;;;;;;;4.25;3.67;;;24.20;57.40;;;;;;4146772;28;20037;-48
2023/02/08 09:13:18;;;;;;;4.60;3.45;;;24.40;58.70;;;;;;4144248;28;20219;-51
2023/02/08 09:15:41;;;;;;;4.10;3.50;;;24.40;57.90;;;;;;4145610;28;20201;-52
2023/02/08 09:18:03;;;;;;;4.13;3.15;;;24.40;56.40;;;;;;4141397;28;20520;-48
2023/02/08 09:20:26;;;;;;;3.53;3.08;;;24.20;55.90;;;;;;4148852;28;20117;-46
2023/02/08 09:22:48;;;;;;;4.10;2.95;;;24.10;56.30;;;;;;4150261;28;20051;-43
2023/02/08 09:25:11;;;;;;;4.97;2.70;;;24.00;56.80;;;;;;4151197;28;20045;-44
2023/02/08 09:27:34;;;;;;;5.03;2.55;;;24.10;57.20;;;;;;4151747;28;20413;-54
2023/02/08 09:29:56;;;;;;;2.90;2.40;;;24.30;57.60;;;;;;4146083;28;20575;-49
2023/02/08 09:32:20;;;;;;;3.10;2.47;;;24.40;59.50;;;;;;4148032;28;20111;-50
2023/02/08 09:34:42;;;;;;;3.55;2.63;;;24.40;57.60;;;;;;4148310;28;20057;-48
2023/02/08 09:37:05;;;;;;;3.08;2.45;;;24.30;56.50;;;;;;4146673;28;20291;-45
2023/02/08 09:39:28;;;;;;;3.33;2.42;;;24.20;55.90;;;;;;4148079;28;20036;-46
2023/02/08 09:42:18;;;;;;;4.60;2.30;;;24.00;55.70;;;;;;4144994;28;20817;-50
2023/02/08 09:45:05;;;;;;;3.85;2.38;;;23.90;55.40;;;;;;4143185;28;20064;-43
2023/02/08 09:47:54;;;;;;;3.25;2.35;;;23.70;55.50;;;;;;4147944;28;20475;-44
2023/02/08 09:50:35;;;;;;;2.67;2.00;;;23.60;55.60;;;;;;4145812;28;20037;-44
2023/02/08 09:53:04;;;;;;;2.70;1.83;;;23.50;55.50;;;;;;4144779;28;20133;-43
2023/02/08 09:55:37;;;;;;;2.53;1.95;;;23.50;55.50;;;;;;4147221;28;20052;-45
2023/02/08 09:58:02;;;;;;;2.72;1.80;;;23.40;55.30;;;;;;4144246;28;20034;-43
2023/02/08 10:00:35;;;;;;;1.98;1.65;;;23.30;55.10;;;;;;4141273;28;20033;-43
2023/02/08 10:03:00;;;;;;;2.45;1.83;;;23.30;54.70;;;;;;4147538;28;20146;-42
2023/02/08 10:05:26;;;;;;;2.70;1.80;;;23.20;55.40;;;;;;4147589;28;20059;-42
2023/02/08 10:07:48;;;;;;;2.17;1.63;;;23.10;55.00;;;;;;4148087;28;20041;-43
2023/02/08 10:10:58;;;;;;;2.20;1.70;;;23.00;55.20;;;;;;4148405;28;20128;-46
2023/02/08 10:13:29;;;;;;;1.98;1.67;;;22.90;55.10;;;;;;4100822;28;20034;-44
2023/02/08 10:16:17;;;;;;;2.53;1.52;;;22.80;55.00;;;;;;4145231;28;20045;-42
2023/02/08 10:19:15;;;;;;;2.15;1.58;;;22.80;55.40;;;;;;4141786;28;20557;-42
2023/02/08 10:22:01;;;;;;;1.77;1.48;;;22.70;55.20;;;;;;4154541;28;20443;-44
2023/02/08 10:24:38;;;;;;;1.85;1.58;;;22.60;54.70;;;;;;4152178;28;20033;-43
2023/02/08 10:27:17;;;;;;;1.85;1.50;;;22.60;55.30;;;;;;4151956;28;20045;-46
2023/02/08 10:30:05;;;;;;;1.90;1.23;;;22.50;55.20;;;;;;4151656;28;20541;-43
2023/02/08 10:32:39;;;;;;;1.50;1.35;;;22.50;56.90;;;;;;4151681;28;20059;-45
2023/02/08 10:35:14;;;;;;;1.47;1.30;;;22.50;56.40;;;;;;4153674;28;20682;-41
2023/02/08 10:37:40;;;;;;;2.22;1.40;;;22.60;56.70;;;;;;4150028;28;20151;-42
2023/02/08 10:40:39;;;;;;;1.55;1.02;;;22.80;57.20;;;;;;4153236;28;20187;-44
2023/02/08 10:43:07;;;;;;;8.75;2.00;;;22.90;57.60;;;;;;4150346;28;20503;-46
2023/02/08 10:45:47;;;;;;;7.65;1.45;;;23.10;58.20;;;;;;4146378;28;20046;-45
2023/02/08 10:48:16;;;;;;;10.35;1.95;;;23.30;58.50;;;;;;4151192;28;20870;-45
2023/02/08 10:50:42;;;;;;;10.15;1.70;;;23.40;58.80;;;;;;4149681;28;20095;-47
2023/02/08 10:53:05;;;;;;;12.02;1.90;;;23.50;58.90;;;;;;4150054;28;20084;-46
2023/02/08 10:55:29;;;;;;;7.00;2.00;;;23.60;59.60;;;;;;4151528;28;20461;-47
2023/02/08 10:57:58;;;;;;;3.92;1.80;;;23.60;59.80;;;;;;4155222;28;20052;-42
2023/02/08 11:00:30;;;;;;;4.68;1.42;;;23.60;60.20;;;;;;4152843;28;20103;-44
2023/02/08 11:02:54;;;;;;;4.50;1.42;;;23.70;60.40;;;;;;4151171;28;20280;-47
2023/02/08 11:05:37;;;;;;;4.68;1.33;;;23.80;59.60;;;;;;4152878;28;20046;-45
2023/02/08 11:08:18;;;;;;;4.50;1.60;;;23.90;60.00;;;;;;4153848;28;20426;-48
2023/02/08 11:10:45;;;;;;;3.67;1.42;;;24.00;59.60;;;;;;4151396;28;20033;-44
2023/02/08 11:13:17;;;;;;;5.72;1.40;;;24.00;59.90;;;;;;4152951;28;20150;-43
2023/02/08 11:16:04;;;;;;;4.82;1.10;;;24.10;59.90;;;;;;4154647;28;20541;-45
2023/02/08 11:18:37;;;;;;;2.95;1.25;;;24.20;59.90;;;;;;4156294;28;20037;-44
2023/02/08 11:21:07;;;;;;;2.13;0.85;;;24.20;59.90;;;;;;4154072;28;20481;-44
2023/02/08 11:23:35;;;;;;;15.93;1.40;;;24.30;60.00;;;;;;4154933;28;20113;-44
2023/02/08 11:26:23;;;;;;;5.97;1.23;;;24.30;60.10;;;;;;4151042;28;20042;-45
2023/02/08 11:29:00;;;;;;;8.25;1.10;;;24.40;60.10;;;;;;4154383;28;20159;-44
2023/02/08 11:31:23;;;;;;;2.53;0.93;;;24.40;60.20;;;;;;4154918;28;20149;-45
2023/02/08 11:33:59;;;;;;;5.10;1.02;;;24.50;60.20;;;;;;4155720;28;20128;-47
2023/02/08 11:36:22;;;;;;;8.00;1.08;;;24.60;60.30;;;;;;4155747;28;20115;-48
2023/02/08 11:38:44;;;;;;;2.35;0.70;;;24.60;60.30;;;;;;4150396;28;20033;-47
2023/02/08 11:41:16;;;;;;;4.03;0.95;;;24.70;60.20;;;;;;4154696;28;20037;-43
2023/02/08 11:43:38;;;;;;;3.88;1.10;;;24.70;60.20;;;;;;4152065;28;20881;-43
2023/02/08 11:46:04;;;;;;;3.03;0.75;;;24.70;60.20;;;;;;4153747;28;20513;-40
2023/02/08 11:48:39;;;;;;;2.22;0.60;;;24.80;60.20;;;;;;4153608;28;20067;-42
2023/02/08 11:51:03;;;;;;;3.83;0.98;;;24.80;60.20;;;;;;4152624;28;20044;-43
2023/02/08 11:53:37;;;;;;;2.53;0.60;;;24.90;60.20;;;;;;4150615;28;20507;-42
2023/02/08 11:56:21;;;;;;;3.17;0.70;;;24.90;60.20;;;;;;4155065;28;20040;-41
2023/02/08 11:59:23;;;;;;;3.20;0.60;;;24.90;60.20;;;;;;4152740;28;20050;-43
2023/02/08 12:01:46;;;;;;;3.72;0.80;;;25.00;60.30;;;;;;4153576;28;20511;-41
2023/02/08 12:04:12;;;;;;;5.05;0.85;;;25.00;60.40;;;;;;4156827;28;20124;-42
2023/02/08 12:06:55;;;;;;;4.78;1.10;;;25.10;60.40;;;;;;4153996;28;20091;-45
2023/02/08 12:09:36;;;;;;;2.77;0.77;;;25.10;60.40;;;;;;4153894;28;20042;-42
2023/02/08 12:12:32;;;;;;;2.72;0.80;;;25.10;60.40;;;;;;4152901;28;20077;-44
2023/02/08 12:15:05;;;;;;;7.15;1.10;;;25.20;60.50;;;;;;4153000;28;20600;-47
2023/02/08 12:17:58;;;;;;;4.47;1.13;;;25.20;60.50;;;;;;4151781;28;20072;-46
2023/02/08 12:20:32;;;;;;;5.57;1.35;;;25.20;60.50;;;;;;4155003;28;20048;-41
2023/02/08 12:23:11;;;;;;;4.38;1.20;;;25.30;60.60;;;;;;4156355;28;20048;-43
2023/02/08 12:25:54;;;;;;;4.65;0.98;;;25.30;60.70;;;;;;4155434;28;20104;-42
2023/02/08 12:28:48;;;;;;;7.57;1.23;;;25.30;60.70;;;;;;4156956;28;20227;-42
2023/02/08 12:31:25;;;;;;;5.73;1.23;;;25.40;60.80;;;;;;4123826;28;20727;-42
2023/02/08 12:33:54;;;;;;;4.65;1.02;;;25.40;60.70;;;;;;4154372;28;20049;-44
2023/02/08 12:36:38;;;;;;;3.45;0.70;;;25.40;60.70;;;;;;4154790;28;20391;-44
2023/02/08 12:42:04;;;;;;;5.50;0.85;;;25.40;60.80;;;;;;4153971;28;20065;-45
2023/02/08 12:44:50;;;;;;;1.95;0.80;;;25.40;60.80;;;;;;4156873;28;20342;-44
2023/02/08 12:48:14;;;;;;;2.88;0.50;;;25.50;60.80;;;;;;4156730;28;20505;-45
2023/02/08 12:51:06;;;;;;;1.98;0.52;;;25.50;60.80;;;;;;4147693;28;20508;-44
2023/02/08 12:53:46;;;;;;;2.85;0.50;;;25.60;60.90;;;;;;4156915;28;20045;-43